Rosendale, Missouri
Current Conditions -  °F | °C
As of 8:53 PM on Saturday 20 Dec 2014 (Local Time) from KSTJ Reporting Station
Broken Clouds Broken Clouds  
Wind Chill: 34°   Ceiling: 3200
Heat Index: 40°   Visibility: 9mi
Dew Point: 36°   Wind: 9mph
Humidity: 86%   Direction: 180°S
Pressure: 30.11"   Gusts: NA
Location:  40.04°N, 94.82°W
Report Text: KSTJ 210253Z AUTO 18008KT 9SM BKN032 04/02 A3011 RMK AO2 SLP203 T00440022 57001
Loading
Personal Weather Stations






























Interactive Weather Map New forecast layout! Learn more

10-Day Weather Forecast

Advertisements
Track Severe Weather on mobile